sensor_id;sensor_type;location;lat;lon;timestamp;P1;durP1;ratioP1;P2;durP2;ratioP2
69185;SDS011;56298;49.246;9.410;2023-04-24T00:01:10;3.33;;;0.60;;
69185;SDS011;56298;49.246;9.410;2023-04-24T00:03:35;3.50;;;0.55;;
69185;SDS011;56298;49.246;9.410;2023-04-24T00:06:01;4.18;;;0.63;;
69185;SDS011;56298;49.246;9.410;2023-04-24T00:08:27;3.55;;;0.88;;
69185;SDS011;56298;49.246;9.410;2023-04-24T00:10:52;3.17;;;0.70;;
69185;SDS011;56298;49.246;9.410;2023-04-24T00:13:18;3.50;;;0.80;;
69185;SDS011;56298;49.246;9.410;2023-04-24T00:15:43;4.17;;;0.80;;
69185;SDS011;56298;49.246;9.410;2023-04-24T00:18:08;3.47;;;0.70;;
69185;SDS011;56298;49.246;9.410;2023-04-24T00:20:34;3.65;;;0.88;;
69185;SDS011;56298;49.246;9.410;2023-04-24T00:23:00;2.75;;;0.65;;
69185;SDS011;56298;49.246;9.410;2023-04-24T00:25:26;2.75;;;0.70;;
69185;SDS011;56298;49.246;9.410;2023-04-24T00:27:51;3.53;;;0.70;;
69185;SDS011;56298;49.246;9.410;2023-04-24T00:30:16;2.90;;;0.70;;
69185;SDS011;56298;49.246;9.410;2023-04-24T00:32:41;3.53;;;0.80;;
69185;SDS011;56298;49.246;9.410;2023-04-24T00:35:07;3.70;;;0.70;;
69185;SDS011;56298;49.246;9.410;2023-04-24T00:37:32;3.50;;;0.80;;
69185;SDS011;56298;49.246;9.410;2023-04-24T00:39:57;3.50;;;0.70;;
69185;SDS011;56298;49.246;9.410;2023-04-24T00:42:23;3.10;;;0.77;;
69185;SDS011;56298;49.246;9.410;2023-04-24T00:44:49;2.83;;;0.80;;
69185;SDS011;56298;49.246;9.410;2023-04-24T00:47:14;3.93;;;0.80;;
69185;SDS011;56298;49.246;9.410;2023-04-24T00:49:40;3.00;;;0.70;;
69185;SDS011;56298;49.246;9.410;2023-04-24T00:52:05;3.70;;;0.73;;
69185;SDS011;56298;49.246;9.410;2023-04-24T00:54:33;2.80;;;0.75;;
69185;SDS011;56298;49.246;9.410;2023-04-24T00:56:59;3.70;;;0.88;;
69185;SDS011;56298;49.246;9.410;2023-04-24T00:59:26;3.20;;;0.80;;
69185;SDS011;56298;49.246;9.410;2023-04-24T01:01:51;4.63;;;0.80;;
69185;SDS011;56298;49.246;9.410;2023-04-24T01:04:17;4.60;;;1.40;;
69185;SDS011;56298;49.246;9.410;2023-04-24T01:06:43;3.00;;;0.90;;
69185;SDS011;56298;49.246;9.410;2023-04-24T01:09:10;2.90;;;0.88;;
69185;SDS011;56298;49.246;9.410;2023-04-24T01:11:37;3.03;;;1.00;;
69185;SDS011;56298;49.246;9.410;2023-04-24T01:14:03;3.47;;;0.90;;
69185;SDS011;56298;49.246;9.410;2023-04-24T01:16:29;3.40;;;0.90;;
69185;SDS011;56298;49.246;9.410;2023-04-24T01:18:54;3.90;;;0.90;;
69185;SDS011;56298;49.246;9.410;2023-04-24T01:21:19;4.00;;;0.90;;
69185;SDS011;56298;49.246;9.410;2023-04-24T01:23:48;4.57;;;0.70;;
69185;SDS011;56298;49.246;9.410;2023-04-24T01:26:14;3.93;;;0.87;;
69185;SDS011;56298;49.246;9.410;2023-04-24T01:28:41;4.65;;;1.10;;
69185;SDS011;56298;49.246;9.410;2023-04-24T01:31:06;3.00;;;0.80;;
69185;SDS011;56298;49.246;9.410;2023-04-24T01:33:32;5.23;;;1.00;;
69185;SDS011;56298;49.246;9.410;2023-04-24T01:35:57;4.20;;;1.07;;
69185;SDS011;56298;49.246;9.410;2023-04-24T01:38:22;4.27;;;1.00;;
69185;SDS011;56298;49.246;9.410;2023-04-24T01:40:48;4.17;;;0.93;;
69185;SDS011;56298;49.246;9.410;2023-04-24T01:43:14;4.03;;;0.80;;
69185;SDS011;56298;49.246;9.410;2023-04-24T01:45:40;3.65;;;0.80;;
69185;SDS011;56298;49.246;9.410;2023-04-24T01:48:05;3.43;;;0.90;;
69185;SDS011;56298;49.246;9.410;2023-04-24T01:50:31;4.50;;;0.87;;
69185;SDS011;56298;49.246;9.410;2023-04-24T01:52:56;3.17;;;0.80;;
69185;SDS011;56298;49.246;9.410;2023-04-24T01:55:22;3.33;;;0.93;;
69185;SDS011;56298;49.246;9.410;2023-04-24T01:57:47;3.83;;;0.77;;
69185;SDS011;56298;49.246;9.410;2023-04-24T02:00:12;3.17;;;0.77;;
69185;SDS011;56298;49.246;9.410;2023-04-24T02:02:39;3.33;;;0.90;;
69185;SDS011;56298;49.246;9.410;2023-04-24T02:05:08;3.33;;;0.80;;
69185;SDS011;56298;49.246;9.410;2023-04-24T02:07:33;3.50;;;0.80;;
69185;SDS011;56298;49.246;9.410;2023-04-24T02:09:59;3.83;;;0.80;;
69185;SDS011;56298;49.246;9.410;2023-04-24T02:12:24;4.28;;;0.77;;
69185;SDS011;56298;49.246;9.410;2023-04-24T02:14:49;5.30;;;1.20;;
69185;SDS011;56298;49.246;9.410;2023-04-24T02:17:15;3.60;;;0.98;;
69185;SDS011;56298;49.246;9.410;2023-04-24T02:19:41;4.35;;;0.82;;
69185;SDS011;56298;49.246;9.410;2023-04-24T02:22:06;3.50;;;0.90;;
69185;SDS011;56298;49.246;9.410;2023-04-24T02:24:31;3.80;;;0.97;;
69185;SDS011;56298;49.246;9.410;2023-04-24T02:26:57;4.03;;;0.83;;
69185;SDS011;56298;49.246;9.410;2023-04-24T02:29:22;4.03;;;0.80;;
69185;SDS011;56298;49.246;9.410;2023-04-24T02:31:48;4.50;;;1.00;;
69185;SDS011;56298;49.246;9.410;2023-04-24T02:34:13;3.40;;;0.80;;
69185;SDS011;56298;49.246;9.410;2023-04-24T02:36:38;4.57;;;0.87;;
69185;SDS011;56298;49.246;9.410;2023-04-24T02:39:04;4.20;;;0.70;;
69185;SDS011;56298;49.246;9.410;2023-04-24T02:41:29;3.37;;;0.90;;
69185;SDS011;56298;49.246;9.410;2023-04-24T02:43:57;3.65;;;0.80;;
69185;SDS011;56298;49.246;9.410;2023-04-24T02:46:23;3.55;;;0.70;;
69185;SDS011;56298;49.246;9.410;2023-04-24T02:48:48;3.80;;;0.80;;
69185;SDS011;56298;49.246;9.410;2023-04-24T02:51:13;4.00;;;0.90;;
69185;SDS011;56298;49.246;9.410;2023-04-24T02:53:39;3.97;;;0.80;;
69185;SDS011;56298;49.246;9.410;2023-04-24T02:56:04;4.20;;;0.90;;
69185;SDS011;56298;49.246;9.410;2023-04-24T02:58:29;4.07;;;0.73;;
69185;SDS011;56298;49.246;9.410;2023-04-24T03:00:55;3.45;;;0.77;;
69185;SDS011;56298;49.246;9.410;2023-04-24T03:03:21;3.33;;;0.73;;
69185;SDS011;56298;49.246;9.410;2023-04-24T03:05:46;3.93;;;0.70;;
69185;SDS011;56298;49.246;9.410;2023-04-24T03:08:12;3.10;;;0.70;;
69185;SDS011;56298;49.246;9.410;2023-04-24T03:10:37;4.03;;;1.00;;
69185;SDS011;56298;49.246;9.410;2023-04-24T03:13:03;4.50;;;1.00;;
69185;SDS011;56298;49.246;9.410;2023-04-24T03:15:28;3.42;;;0.82;;
69185;SDS011;56298;49.246;9.410;2023-04-24T03:17:54;3.40;;;0.90;;
69185;SDS011;56298;49.246;9.410;2023-04-24T03:20:20;3.70;;;0.83;;
69185;SDS011;56298;49.246;9.410;2023-04-24T03:22:45;3.90;;;0.80;;
69185;SDS011;56298;49.246;9.410;2023-04-24T03:25:10;3.50;;;1.07;;
69185;SDS011;56298;49.246;9.410;2023-04-24T03:27:36;3.80;;;0.77;;
69185;SDS011;56298;49.246;9.410;2023-04-24T03:30:01;3.23;;;0.83;;
69185;SDS011;56298;49.246;9.410;2023-04-24T03:32:27;4.18;;;0.80;;
69185;SDS011;56298;49.246;9.410;2023-04-24T03:34:52;4.60;;;0.93;;
69185;SDS011;56298;49.246;9.410;2023-04-24T03:37:18;3.78;;;0.90;;
69185;SDS011;56298;49.246;9.410;2023-04-24T03:39:43;3.00;;;0.70;;
69185;SDS011;56298;49.246;9.410;2023-04-24T03:42:08;3.33;;;0.80;;
69185;SDS011;56298;49.246;9.410;2023-04-24T03:44:34;3.40;;;0.70;;
69185;SDS011;56298;49.246;9.410;2023-04-24T03:47:00;4.20;;;0.80;;
69185;SDS011;56298;49.246;9.410;2023-04-24T03:49:25;4.82;;;1.05;;
69185;SDS011;56298;49.246;9.410;2023-04-24T03:51:51;3.33;;;0.90;;
69185;SDS011;56298;49.246;9.410;2023-04-24T03:54:17;3.08;;;0.60;;
69185;SDS011;56298;49.246;9.410;2023-04-24T03:56:42;4.53;;;0.77;;
69185;SDS011;56298;49.246;9.410;2023-04-24T03:59:07;3.73;;;0.87;;
69185;SDS011;56298;49.246;9.410;2023-04-24T04:01:33;3.70;;;0.73;;
69185;SDS011;56298;49.246;9.410;2023-04-24T04:04:01;3.65;;;0.80;;
69185;SDS011;56298;49.246;9.410;2023-04-24T04:06:26;3.87;;;0.80;;
69185;SDS011;56298;49.246;9.410;2023-04-24T04:08:52;3.73;;;0.80;;
69185;SDS011;56298;49.246;9.410;2023-04-24T04:11:17;4.27;;;0.80;;
69185;SDS011;56298;49.246;9.410;2023-04-24T04:13:42;3.13;;;0.70;;
69185;SDS011;56298;49.246;9.410;2023-04-24T04:16:08;4.33;;;0.93;;
69185;SDS011;56298;49.246;9.410;2023-04-24T04:18:34;4.40;;;0.80;;
69185;SDS011;56298;49.246;9.410;2023-04-24T04:20:59;5.17;;;0.93;;
69185;SDS011;56298;49.246;9.410;2023-04-24T04:23:26;5.88;;;1.02;;
69185;SDS011;56298;49.246;9.410;2023-04-24T04:25:51;5.32;;;1.10;;
69185;SDS011;56298;49.246;9.410;2023-04-24T04:28:16;3.92;;;0.88;;
69185;SDS011;56298;49.246;9.410;2023-04-24T04:30:44;4.03;;;1.10;;
69185;SDS011;56298;49.246;9.410;2023-04-24T04:33:10;5.57;;;1.07;;
69185;SDS011;56298;49.246;9.410;2023-04-24T04:35:35;6.10;;;1.40;;
69185;SDS011;56298;49.246;9.410;2023-04-24T04:38:01;5.72;;;1.30;;
69185;SDS011;56298;49.246;9.410;2023-04-24T04:40:26;4.73;;;1.23;;
69185;SDS011;56298;49.246;9.410;2023-04-24T04:42:53;4.20;;;1.30;;
69185;SDS011;56298;49.246;9.410;2023-04-24T04:45:18;4.97;;;1.20;;
69185;SDS011;56298;49.246;9.410;2023-04-24T04:47:45;5.30;;;1.13;;
69185;SDS011;56298;49.246;9.410;2023-04-24T04:50:11;3.83;;;1.10;;
69185;SDS011;56298;49.246;9.410;2023-04-24T04:52:36;3.55;;;1.10;;
69185;SDS011;56298;49.246;9.410;2023-04-24T04:55:02;5.37;;;1.20;;
69185;SDS011;56298;49.246;9.410;2023-04-24T04:57:27;4.00;;;1.10;;
69185;SDS011;56298;49.246;9.410;2023-04-24T04:59:53;5.10;;;1.03;;
69185;SDS011;56298;49.246;9.410;2023-04-24T05:02:18;5.32;;;1.17;;
69185;SDS011;56298;49.246;9.410;2023-04-24T05:04:43;3.80;;;1.10;;
69185;SDS011;56298;49.246;9.410;2023-04-24T05:07:09;4.10;;;1.47;;
69185;SDS011;56298;49.246;9.410;2023-04-24T05:09:35;5.70;;;2.20;;
69185;SDS011;56298;49.246;9.410;2023-04-24T05:12:00;5.60;;;3.00;;
69185;SDS011;56298;49.246;9.410;2023-04-24T05:14:27;4.50;;;1.90;;
69185;SDS011;56298;49.246;9.410;2023-04-24T05:16:52;5.17;;;1.70;;
69185;SDS011;56298;49.246;9.410;2023-04-24T05:19:17;5.17;;;1.90;;
69185;SDS011;56298;49.246;9.410;2023-04-24T05:21:43;5.90;;;1.90;;
69185;SDS011;56298;49.246;9.410;2023-04-24T05:24:08;4.57;;;1.73;;
69185;SDS011;56298;49.246;9.410;2023-04-24T05:26:33;4.50;;;1.90;;
69185;SDS011;56298;49.246;9.410;2023-04-24T05:28:58;5.57;;;1.93;;
69185;SDS011;56298;49.246;9.410;2023-04-24T05:31:24;5.00;;;2.20;;
69185;SDS011;56298;49.246;9.410;2023-04-24T05:33:50;5.57;;;1.90;;
69185;SDS011;56298;49.246;9.410;2023-04-24T05:36:15;4.73;;;2.10;;
69185;SDS011;56298;49.246;9.410;2023-04-24T05:38:40;5.03;;;2.30;;
69185;SDS011;56298;49.246;9.410;2023-04-24T05:41:06;4.60;;;2.40;;
69185;SDS011;56298;49.246;9.410;2023-04-24T05:43:31;4.60;;;2.40;;
69185;SDS011;56298;49.246;9.410;2023-04-24T05:45:56;5.73;;;2.63;;
69185;SDS011;56298;49.246;9.410;2023-04-24T05:48:22;6.60;;;2.37;;
69185;SDS011;56298;49.246;9.410;2023-04-24T05:50:47;5.13;;;2.20;;
69185;SDS011;56298;49.246;9.410;2023-04-24T05:53:13;5.60;;;2.17;;
69185;SDS011;56298;49.246;9.410;2023-04-24T05:55:38;5.13;;;2.77;;
69185;SDS011;56298;49.246;9.410;2023-04-24T05:58:04;6.22;;;2.80;;
69185;SDS011;56298;49.246;9.410;2023-04-24T06:00:29;6.55;;;2.45;;
69185;SDS011;56298;49.246;9.410;2023-04-24T06:02:55;5.70;;;2.50;;
69185;SDS011;56298;49.246;9.410;2023-04-24T06:05:20;5.00;;;2.20;;
69185;SDS011;56298;49.246;9.410;2023-04-24T06:07:45;7.65;;;2.70;;
69185;SDS011;56298;49.246;9.410;2023-04-24T06:10:11;6.07;;;2.40;;
69185;SDS011;56298;49.246;9.410;2023-04-24T06:12:36;5.28;;;2.83;;
69185;SDS011;56298;49.246;9.410;2023-04-24T06:15:02;6.05;;;3.20;;
69185;SDS011;56298;49.246;9.410;2023-04-24T06:17:28;5.40;;;2.72;;
69185;SDS011;56298;49.246;9.410;2023-04-24T06:19:53;5.80;;;2.83;;
69185;SDS011;56298;49.246;9.410;2023-04-24T06:22:18;6.27;;;2.80;;
69185;SDS011;56298;49.246;9.410;2023-04-24T06:24:44;6.27;;;3.00;;
69185;SDS011;56298;49.246;9.410;2023-04-24T06:27:09;5.63;;;2.85;;
69185;SDS011;56298;49.246;9.410;2023-04-24T06:29:35;4.90;;;2.10;;
69185;SDS011;56298;49.246;9.410;2023-04-24T06:32:01;4.80;;;2.10;;
69185;SDS011;56298;49.246;9.410;2023-04-24T06:34:26;5.70;;;2.00;;
69185;SDS011;56298;49.246;9.410;2023-04-24T06:36:51;4.50;;;1.90;;
69185;SDS011;56298;49.246;9.410;2023-04-24T06:39:17;4.87;;;2.30;;
69185;SDS011;56298;49.246;9.410;2023-04-24T06:41:42;5.60;;;2.47;;
69185;SDS011;56298;49.246;9.410;2023-04-24T06:44:07;4.93;;;2.30;;
69185;SDS011;56298;49.246;9.410;2023-04-24T06:46:33;5.10;;;2.27;;
69185;SDS011;56298;49.246;9.410;2023-04-24T06:48:58;4.85;;;2.35;;
69185;SDS011;56298;49.246;9.410;2023-04-24T06:51:24;5.50;;;2.30;;
69185;SDS011;56298;49.246;9.410;2023-04-24T06:53:51;5.05;;;2.50;;
69185;SDS011;56298;49.246;9.410;2023-04-24T06:56:17;5.15;;;2.90;;
69185;SDS011;56298;49.246;9.410;2023-04-24T06:58:42;5.77;;;2.60;;
69185;SDS011;56298;49.246;9.410;2023-04-24T07:01:07;5.67;;;2.60;;
69185;SDS011;56298;49.246;9.410;2023-04-24T07:03:32;4.67;;;2.40;;
69185;SDS011;56298;49.246;9.410;2023-04-24T07:05:58;5.23;;;2.47;;
69185;SDS011;56298;49.246;9.410;2023-04-24T07:08:23;5.23;;;2.80;;
69185;SDS011;56298;49.246;9.410;2023-04-24T07:10:49;5.40;;;2.50;;
69185;SDS011;56298;49.246;9.410;2023-04-24T07:13:15;5.53;;;2.50;;
69185;SDS011;56298;49.246;9.410;2023-04-24T07:15:40;5.70;;;2.57;;
69185;SDS011;56298;49.246;9.410;2023-04-24T07:18:06;6.13;;;2.80;;
69185;SDS011;56298;49.246;9.410;2023-04-24T07:20:31;6.07;;;2.57;;
69185;SDS011;56298;49.246;9.410;2023-04-24T07:22:58;4.73;;;2.40;;
69185;SDS011;56298;49.246;9.410;2023-04-24T07:25:23;5.77;;;2.70;;
69185;SDS011;56298;49.246;9.410;2023-04-24T07:27:48;5.47;;;2.63;;
69185;SDS011;56298;49.246;9.410;2023-04-24T07:30:14;5.60;;;2.20;;
69185;SDS011;56298;49.246;9.410;2023-04-24T07:32:39;5.27;;;2.10;;
69185;SDS011;56298;49.246;9.410;2023-04-24T07:35:04;4.33;;;1.97;;
69185;SDS011;56298;49.246;9.410;2023-04-24T07:37:30;4.05;;;2.00;;
69185;SDS011;56298;49.246;9.410;2023-04-24T07:39:55;5.50;;;1.90;;
69185;SDS011;56298;49.246;9.410;2023-04-24T07:42:21;5.77;;;2.30;;
69185;SDS011;56298;49.246;9.410;2023-04-24T07:44:46;5.22;;;2.10;;
69185;SDS011;56298;49.246;9.410;2023-04-24T07:47:12;6.47;;;1.80;;
69185;SDS011;56298;49.246;9.410;2023-04-24T07:49:41;4.75;;;2.03;;
69185;SDS011;56298;49.246;9.410;2023-04-24T07:52:06;5.22;;;1.85;;
69185;SDS011;56298;49.246;9.410;2023-04-24T07:54:32;4.57;;;1.93;;
69185;SDS011;56298;49.246;9.410;2023-04-24T07:56:57;4.30;;;1.83;;
69185;SDS011;56298;49.246;9.410;2023-04-24T07:59:22;4.40;;;1.70;;
69185;SDS011;56298;49.246;9.410;2023-04-24T08:01:48;4.80;;;1.70;;
69185;SDS011;56298;49.246;9.410;2023-04-24T08:04:14;3.85;;;1.50;;
69185;SDS011;56298;49.246;9.410;2023-04-24T08:06:39;4.68;;;1.70;;
69185;SDS011;56298;49.246;9.410;2023-04-24T08:09:05;3.90;;;1.65;;
69185;SDS011;56298;49.246;9.410;2023-04-24T08:11:30;4.23;;;1.60;;
69185;SDS011;56298;49.246;9.410;2023-04-24T08:13:56;4.72;;;1.77;;
69185;SDS011;56298;49.246;9.410;2023-04-24T08:16:22;4.40;;;1.80;;
69185;SDS011;56298;49.246;9.410;2023-04-24T08:18:48;4.20;;;1.50;;
69185;SDS011;56298;49.246;9.410;2023-04-24T08:21:14;5.10;;;1.43;;
69185;SDS011;56298;49.246;9.410;2023-04-24T08:23:42;5.83;;;1.77;;
69185;SDS011;56298;49.246;9.410;2023-04-24T08:26:07;4.75;;;1.35;;
69185;SDS011;56298;49.246;9.410;2023-04-24T08:28:33;3.93;;;1.43;;
69185;SDS011;56298;49.246;9.410;2023-04-24T08:30:58;4.87;;;1.70;;
69185;SDS011;56298;49.246;9.410;2023-04-24T08:33:23;6.67;;;1.70;;
69185;SDS011;56298;49.246;9.410;2023-04-24T08:35:49;4.88;;;1.55;;
69185;SDS011;56298;49.246;9.410;2023-04-24T08:38:15;4.00;;;1.60;;
69185;SDS011;56298;49.246;9.410;2023-04-24T08:40:41;6.22;;;1.88;;
69185;SDS011;56298;49.246;9.410;2023-04-24T08:43:06;4.87;;;1.60;;
69185;SDS011;56298;49.246;9.410;2023-04-24T08:45:33;5.28;;;1.80;;
69185;SDS011;56298;49.246;9.410;2023-04-24T08:47:58;4.50;;;1.90;;
69185;SDS011;56298;49.246;9.410;2023-04-24T08:50:25;6.43;;;1.83;;
69185;SDS011;56298;49.246;9.410;2023-04-24T08:52:50;5.13;;;1.92;;
69185;SDS011;56298;49.246;9.410;2023-04-24T08:55:19;5.00;;;1.90;;
69185;SDS011;56298;49.246;9.410;2023-04-24T08:57:45;4.97;;;1.98;;
69185;SDS011;56298;49.246;9.410;2023-04-24T09:00:15;4.85;;;1.70;;
69185;SDS011;56298;49.246;9.410;2023-04-24T09:02:44;3.92;;;1.90;;
69185;SDS011;56298;49.246;9.410;2023-04-24T09:05:12;5.43;;;1.90;;
69185;SDS011;56298;49.246;9.410;2023-04-24T09:07:38;4.00;;;1.73;;
69185;SDS011;56298;49.246;9.410;2023-04-24T09:10:08;4.72;;;1.88;;
69185;SDS011;56298;49.246;9.410;2023-04-24T09:12:34;5.57;;;2.10;;
69185;SDS011;56298;49.246;9.410;2023-04-24T09:15:00;4.40;;;1.97;;
69185;SDS011;56298;49.246;9.410;2023-04-24T09:17:28;4.70;;;2.00;;
69185;SDS011;56298;49.246;9.410;2023-04-24T09:19:56;5.22;;;1.95;;
69185;SDS011;56298;49.246;9.410;2023-04-24T09:22:21;6.17;;;2.10;;
69185;SDS011;56298;49.246;9.410;2023-04-24T09:24:47;4.20;;;2.00;;
69185;SDS011;56298;49.246;9.410;2023-04-24T09:27:13;4.97;;;2.35;;
69185;SDS011;56298;49.246;9.410;2023-04-24T09:29:52;4.80;;;2.20;;
69185;SDS011;56298;49.246;9.410;2023-04-24T09:32:19;4.28;;;1.70;;
69185;SDS011;56298;49.246;9.410;2023-04-24T09:35:04;4.60;;;1.50;;
69185;SDS011;56298;49.246;9.410;2023-04-24T09:37:43;4.00;;;1.30;;
69185;SDS011;56298;49.246;9.410;2023-04-24T09:40:17;3.60;;;1.15;;
69185;SDS011;56298;49.246;9.410;2023-04-24T09:42:54;4.50;;;1.40;;
69185;SDS011;56298;49.246;9.410;2023-04-24T09:45:21;3.60;;;1.15;;
69185;SDS011;56298;49.246;9.410;2023-04-24T09:47:51;4.20;;;1.47;;
69185;SDS011;56298;49.246;9.410;2023-04-24T09:50:18;3.53;;;1.27;;
69185;SDS011;56298;49.246;9.410;2023-04-24T09:52:44;4.07;;;1.47;;
69185;SDS011;56298;49.246;9.410;2023-04-24T09:55:20;3.83;;;1.40;;
69185;SDS011;56298;49.246;9.410;2023-04-24T09:57:49;5.27;;;1.60;;
69185;SDS011;56298;49.246;9.410;2023-04-24T10:00:26;4.30;;;1.50;;
69185;SDS011;56298;49.246;9.410;2023-04-24T10:08:10;3.95;;;1.38;;
69185;SDS011;56298;49.246;9.410;2023-04-24T10:10:43;4.72;;;1.50;;
69185;SDS011;56298;49.246;9.410;2023-04-24T10:13:10;4.20;;;1.55;;
69185;SDS011;56298;49.246;9.410;2023-04-24T10:15:36;3.90;;;1.30;;
69185;SDS011;56298;49.246;9.410;2023-04-24T10:18:04;4.10;;;1.10;;
69185;SDS011;56298;49.246;9.410;2023-04-24T10:20:31;4.70;;;1.40;;
69185;SDS011;56298;49.246;9.410;2023-04-24T10:22:57;3.90;;;1.40;;
69185;SDS011;56298;49.246;9.410;2023-04-24T10:25:24;5.50;;;1.70;;
69185;SDS011;56298;49.246;9.410;2023-04-24T10:27:51;4.70;;;1.58;;
69185;SDS011;56298;49.246;9.410;2023-04-24T10:30:18;6.57;;;1.60;;
69185;SDS011;56298;49.246;9.410;2023-04-24T10:32:45;5.10;;;1.95;;
69185;SDS011;56298;49.246;9.410;2023-04-24T10:35:14;5.07;;;1.97;;
69185;SDS011;56298;49.246;9.410;2023-04-24T10:37:42;5.68;;;2.80;;
69185;SDS011;56298;49.246;9.410;2023-04-24T10:40:10;5.47;;;2.40;;
69185;SDS011;56298;49.246;9.410;2023-04-24T10:42:39;5.75;;;2.60;;
69185;SDS011;56298;49.246;9.410;2023-04-24T10:45:06;6.55;;;2.60;;
69185;SDS011;56298;49.246;9.410;2023-04-24T10:47:41;4.47;;;2.40;;
69185;SDS011;56298;49.246;9.410;2023-04-24T10:50:10;5.22;;;2.40;;
69185;SDS011;56298;49.246;9.410;2023-04-24T10:52:48;5.75;;;2.28;;
69185;SDS011;56298;49.246;9.410;2023-04-24T10:58:07;5.78;;;2.42;;
69185;SDS011;56298;49.246;9.410;2023-04-24T11:00:32;5.07;;;2.30;;
69185;SDS011;56298;49.246;9.410;2023-04-24T11:03:01;6.40;;;2.53;;
69185;SDS011;56298;49.246;9.410;2023-04-24T11:06:03;5.07;;;2.40;;
69185;SDS011;56298;49.246;9.410;2023-04-24T11:11:13;4.90;;;2.50;;
69185;SDS011;56298;49.246;9.410;2023-04-24T11:16:21;5.22;;;2.60;;
69185;SDS011;56298;49.246;9.410;2023-04-24T11:21:31;5.30;;;2.50;;
69185;SDS011;56298;49.246;9.410;2023-04-24T11:24:21;5.50;;;2.72;;
69185;SDS011;56298;49.246;9.410;2023-04-24T11:26:47;5.10;;;2.33;;
69185;SDS011;56298;49.246;9.410;2023-04-24T11:29:13;5.60;;;2.77;;
69185;SDS011;56298;49.246;9.410;2023-04-24T11:31:39;5.50;;;2.90;;
69185;SDS011;56298;49.246;9.410;2023-04-24T11:34:10;6.20;;;2.83;;
69185;SDS011;56298;49.246;9.410;2023-04-24T11:36:39;6.45;;;2.70;;
69185;SDS011;56298;49.246;9.410;2023-04-24T11:39:07;6.73;;;2.97;;
69185;SDS011;56298;49.246;9.410;2023-04-24T11:41:33;6.43;;;2.70;;
69185;SDS011;56298;49.246;9.410;2023-04-24T11:43:58;5.47;;;2.60;;
69185;SDS011;56298;49.246;9.410;2023-04-24T11:46:28;6.17;;;3.00;;
69185;SDS011;56298;49.246;9.410;2023-04-24T11:48:55;6.13;;;2.92;;
69185;SDS011;56298;49.246;9.410;2023-04-24T11:51:22;6.10;;;3.10;;
69185;SDS011;56298;49.246;9.410;2023-04-24T11:53:48;5.67;;;3.10;;
69185;SDS011;56298;49.246;9.410;2023-04-24T11:56:17;5.77;;;2.80;;
69185;SDS011;56298;49.246;9.410;2023-04-24T11:58:44;6.60;;;2.70;;
69185;SDS011;56298;49.246;9.410;2023-04-24T12:01:09;4.60;;;2.30;;
69185;SDS011;56298;49.246;9.410;2023-04-24T12:03:34;6.00;;;2.63;;
69185;SDS011;56298;49.246;9.410;2023-04-24T12:06:06;5.33;;;2.93;;
69185;SDS011;56298;49.246;9.410;2023-04-24T12:08:33;5.78;;;2.90;;
69185;SDS011;56298;49.246;9.410;2023-04-24T12:11:00;6.28;;;3.15;;
69185;SDS011;56298;49.246;9.410;2023-04-24T12:13:26;6.68;;;3.00;;
69185;SDS011;56298;49.246;9.410;2023-04-24T12:15:52;5.80;;;3.17;;
69185;SDS011;56298;49.246;9.410;2023-04-24T12:18:17;6.53;;;3.40;;
69185;SDS011;56298;49.246;9.410;2023-04-24T12:20:43;6.53;;;3.20;;
69185;SDS011;56298;49.246;9.410;2023-04-24T12:23:08;6.60;;;3.65;;
69185;SDS011;56298;49.246;9.410;2023-04-24T12:25:34;5.60;;;3.67;;
69185;SDS011;56298;49.246;9.410;2023-04-24T12:28:09;6.15;;;3.65;;
69185;SDS011;56298;49.246;9.410;2023-04-24T12:30:40;6.03;;;3.50;;
69185;SDS011;56298;49.246;9.410;2023-04-24T12:33:09;5.80;;;3.40;;
69185;SDS011;56298;49.246;9.410;2023-04-24T12:35:34;7.47;;;3.40;;
69185;SDS011;56298;49.246;9.410;2023-04-24T12:38:10;7.13;;;3.40;;
69185;SDS011;56298;49.246;9.410;2023-04-24T12:40:38;7.73;;;4.00;;
69185;SDS011;56298;49.246;9.410;2023-04-24T12:43:13;7.70;;;3.80;;
69185;SDS011;56298;49.246;9.410;2023-04-24T12:45:40;7.85;;;4.50;;
69185;SDS011;56298;49.246;9.410;2023-04-24T12:48:05;7.43;;;4.63;;
69185;SDS011;56298;49.246;9.410;2023-04-24T12:50:30;8.47;;;4.80;;
69185;SDS011;56298;49.246;9.410;2023-04-24T12:52:56;7.03;;;4.40;;
69185;SDS011;56298;49.246;9.410;2023-04-24T12:55:21;6.97;;;4.20;;
69185;SDS011;56298;49.246;9.410;2023-04-24T12:57:46;6.53;;;3.80;;
69185;SDS011;56298;49.246;9.410;2023-04-24T13:00:12;7.07;;;4.00;;
69185;SDS011;56298;49.246;9.410;2023-04-24T13:02:37;6.60;;;4.10;;
69185;SDS011;56298;49.246;9.410;2023-04-24T13:05:03;6.32;;;3.90;;
69185;SDS011;56298;49.246;9.410;2023-04-24T13:07:28;7.97;;;4.20;;
69185;SDS011;56298;49.246;9.410;2023-04-24T13:09:54;6.80;;;3.50;;
69185;SDS011;56298;49.246;9.410;2023-04-24T13:12:20;6.85;;;3.60;;
69185;SDS011;56298;49.246;9.410;2023-04-24T13:14:46;7.10;;;3.70;;
69185;SDS011;56298;49.246;9.410;2023-04-24T13:17:12;6.90;;;3.53;;
69185;SDS011;56298;49.246;9.410;2023-04-24T13:19:41;6.43;;;3.50;;
69185;SDS011;56298;49.246;9.410;2023-04-24T13:22:08;7.70;;;3.30;;
69185;SDS011;56298;49.246;9.410;2023-04-24T13:24:35;5.68;;;3.17;;
69185;SDS011;56298;49.246;9.410;2023-04-24T13:27:00;5.68;;;2.78;;
69185;SDS011;56298;49.246;9.410;2023-04-24T13:29:26;6.45;;;3.00;;
69185;SDS011;56298;49.246;9.410;2023-04-24T13:31:51;7.17;;;3.00;;
69185;SDS011;56298;49.246;9.410;2023-04-24T13:34:22;5.90;;;3.10;;
69185;SDS011;56298;49.246;9.410;2023-04-24T13:36:49;6.60;;;3.15;;
69185;SDS011;56298;49.246;9.410;2023-04-24T13:39:16;7.05;;;3.17;;
69185;SDS011;56298;49.246;9.410;2023-04-24T13:41:41;6.32;;;3.40;;
69185;SDS011;56298;49.246;9.410;2023-04-24T13:44:07;7.27;;;3.60;;
69185;SDS011;56298;49.246;9.410;2023-04-24T13:46:33;5.38;;;2.90;;
69185;SDS011;56298;49.246;9.410;2023-04-24T13:48:58;6.00;;;3.10;;
69185;SDS011;56298;49.246;9.410;2023-04-24T13:51:27;7.00;;;3.25;;
69185;SDS011;56298;49.246;9.410;2023-04-24T13:53:53;5.97;;;3.30;;
69185;SDS011;56298;49.246;9.410;2023-04-24T13:56:18;8.23;;;3.63;;
69185;SDS011;56298;49.246;9.410;2023-04-24T13:58:44;6.25;;;3.33;;
69185;SDS011;56298;49.246;9.410;2023-04-24T14:01:09;7.60;;;3.60;;
69185;SDS011;56298;49.246;9.410;2023-04-24T14:03:35;6.33;;;3.37;;
69185;SDS011;56298;49.246;9.410;2023-04-24T14:06:02;6.43;;;3.70;;
69185;SDS011;56298;49.246;9.410;2023-04-24T14:08:27;6.13;;;3.90;;
69185;SDS011;56298;49.246;9.410;2023-04-24T14:10:52;8.20;;;4.37;;
69185;SDS011;56298;49.246;9.410;2023-04-24T14:13:18;7.13;;;4.05;;
69185;SDS011;56298;49.246;9.410;2023-04-24T14:15:44;6.67;;;4.03;;
69185;SDS011;56298;49.246;9.410;2023-04-24T14:18:09;6.93;;;3.70;;
69185;SDS011;56298;49.246;9.410;2023-04-24T14:20:34;7.43;;;4.30;;
69185;SDS011;56298;49.246;9.410;2023-04-24T14:23:00;7.93;;;3.97;;
69185;SDS011;56298;49.246;9.410;2023-04-24T14:25:25;6.87;;;3.90;;
69185;SDS011;56298;49.246;9.410;2023-04-24T14:27:51;6.47;;;3.50;;
69185;SDS011;56298;49.246;9.410;2023-04-24T14:30:16;6.87;;;3.70;;
69185;SDS011;56298;49.246;9.410;2023-04-24T14:32:42;8.48;;;3.53;;
69185;SDS011;56298;49.246;9.410;2023-04-24T14:35:07;6.37;;;3.50;;
69185;SDS011;56298;49.246;9.410;2023-04-24T14:37:33;6.90;;;3.70;;
69185;SDS011;56298;49.246;9.410;2023-04-24T14:39:58;6.63;;;3.60;;
69185;SDS011;56298;49.246;9.410;2023-04-24T14:42:23;7.00;;;3.50;;
69185;SDS011;56298;49.246;9.410;2023-04-24T14:44:49;6.83;;;3.40;;
69185;SDS011;56298;49.246;9.410;2023-04-24T14:47:15;5.57;;;3.40;;
69185;SDS011;56298;49.246;9.410;2023-04-24T14:49:42;7.50;;;3.57;;
69185;SDS011;56298;49.246;9.410;2023-04-24T14:52:08;6.25;;;3.38;;
69185;SDS011;56298;49.246;9.410;2023-04-24T14:54:34;6.50;;;3.50;;
69185;SDS011;56298;49.246;9.410;2023-04-24T14:56:59;6.83;;;3.70;;
69185;SDS011;56298;49.246;9.410;2023-04-24T14:59:26;6.07;;;3.00;;